sensor_id;sensor_type;location;lat;lon;timestamp;temperature;humidity
24408;DHT22;12542;50.924;4.516;2023-05-07T00:01:56;16.40;99.90
24408;DHT22;12542;50.924;4.516;2023-05-07T00:04:22;16.40;99.90
24408;DHT22;12542;50.924;4.516;2023-05-07T00:06:48;16.60;99.90
24408;DHT22;12542;50.924;4.516;2023-05-07T00:09:13;16.60;99.90
24408;DHT22;12542;50.924;4.516;2023-05-07T00:11:39;16.60;99.90
24408;DHT22;12542;50.924;4.516;2023-05-07T00:14:05;16.60;99.90
24408;DHT22;12542;50.924;4.516;2023-05-07T00:16:33;16.60;99.90
24408;DHT22;12542;50.924;4.516;2023-05-07T00:18:59;16.30;99.90
24408;DHT22;12542;50.924;4.516;2023-05-07T00:21:27;16.40;99.90
24408;DHT22;12542;50.924;4.516;2023-05-07T00:23:54;16.40;99.90
24408;DHT22;12542;50.924;4.516;2023-05-07T00:26:20;16.50;99.90
24408;DHT22;12542;50.924;4.516;2023-05-07T00:28:46;16.50;99.90
24408;DHT22;12542;50.924;4.516;2023-05-07T00:31:11;16.50;99.90
24408;DHT22;12542;50.924;4.516;2023-05-07T00:33:38;16.60;99.90
24408;DHT22;12542;50.924;4.516;2023-05-07T00:36:04;16.70;99.90
24408;DHT22;12542;50.924;4.516;2023-05-07T00:38:29;16.60;99.90
24408;DHT22;12542;50.924;4.516;2023-05-07T00:40:58;16.60;99.90
24408;DHT22;12542;50.924;4.516;2023-05-07T00:43:23;16.60;99.90
24408;DHT22;12542;50.924;4.516;2023-05-07T00:45:51;16.40;99.90
24408;DHT22;12542;50.924;4.516;2023-05-07T00:48:18;16.40;99.90
24408;DHT22;12542;50.924;4.516;2023-05-07T00:50:44;16.50;99.90
24408;DHT22;12542;50.924;4.516;2023-05-07T00:53:11;16.50;99.90
24408;DHT22;12542;50.924;4.516;2023-05-07T00:55:38;16.50;99.90
24408;DHT22;12542;50.924;4.516;2023-05-07T00:58:04;16.60;99.90
24408;DHT22;12542;50.924;4.516;2023-05-07T01:00:30;16.90;99.90
24408;DHT22;12542;50.924;4.516;2023-05-07T01:02:55;16.90;99.90
24408;DHT22;12542;50.924;4.516;2023-05-07T01:05:23;16.80;99.90
24408;DHT22;12542;50.924;4.516;2023-05-07T01:07:51;16.60;99.90
24408;DHT22;12542;50.924;4.516;2023-05-07T01:10:17;16.60;99.90
24408;DHT22;12542;50.924;4.516;2023-05-07T01:12:44;16.80;99.90
24408;DHT22;12542;50.924;4.516;2023-05-07T01:15:11;16.60;99.90
24408;DHT22;12542;50.924;4.516;2023-05-07T01:17:39;16.60;99.90
24408;DHT22;12542;50.924;4.516;2023-05-07T01:20:06;16.80;99.90
24408;DHT22;12542;50.924;4.516;2023-05-07T01:22:34;16.70;99.90
24408;DHT22;12542;50.924;4.516;2023-05-07T01:25:00;16.60;99.90
24408;DHT22;12542;50.924;4.516;2023-05-07T01:27:27;16.50;99.90
24408;DHT22;12542;50.924;4.516;2023-05-07T01:29:53;16.50;99.90
24408;DHT22;12542;50.924;4.516;2023-05-07T01:32:23;16.60;99.90
24408;DHT22;12542;50.924;4.516;2023-05-07T01:34:52;16.60;99.90
24408;DHT22;12542;50.924;4.516;2023-05-07T01:37:18;16.80;99.90
24408;DHT22;12542;50.924;4.516;2023-05-07T01:39:44;16.80;99.90
24408;DHT22;12542;50.924;4.516;2023-05-07T01:42:10;16.70;99.90
24408;DHT22;12542;50.924;4.516;2023-05-07T01:44:35;16.70;99.90
24408;DHT22;12542;50.924;4.516;2023-05-07T01:47:02;16.80;99.90
24408;DHT22;12542;50.924;4.516;2023-05-07T01:49:28;16.80;99.90
24408;DHT22;12542;50.924;4.516;2023-05-07T01:51:54;16.70;99.90
24408;DHT22;12542;50.924;4.516;2023-05-07T01:54:25;16.60;99.90
24408;DHT22;12542;50.924;4.516;2023-05-07T01:56:53;16.50;99.90
24408;DHT22;12542;50.924;4.516;2023-05-07T01:59:19;16.30;99.90
24408;DHT22;12542;50.924;4.516;2023-05-07T02:01:44;16.30;99.90
24408;DHT22;12542;50.924;4.516;2023-05-07T02:04:10;16.30;99.90
24408;DHT22;12542;50.924;4.516;2023-05-07T02:06:36;16.40;99.90
24408;DHT22;12542;50.924;4.516;2023-05-07T02:09:02;16.40;99.90
24408;DHT22;12542;50.924;4.516;2023-05-07T02:11:27;16.30;99.90
24408;DHT22;12542;50.924;4.516;2023-05-07T02:13:53;16.40;99.90
24408;DHT22;12542;50.924;4.516;2023-05-07T02:16:20;16.40;99.90
24408;DHT22;12542;50.924;4.516;2023-05-07T02:18:47;16.50;99.90
24408;DHT22;12542;50.924;4.516;2023-05-07T02:21:15;16.60;99.90
24408;DHT22;12542;50.924;4.516;2023-05-07T02:23:40;16.50;99.90
24408;DHT22;12542;50.924;4.516;2023-05-07T02:26:06;16.60;99.90
24408;DHT22;12542;50.924;4.516;2023-05-07T02:28:32;16.60;99.90
24408;DHT22;12542;50.924;4.516;2023-05-07T02:31:03;16.60;99.90
24408;DHT22;12542;50.924;4.516;2023-05-07T02:33:29;16.60;99.90
24408;DHT22;12542;50.924;4.516;2023-05-07T02:35:56;16.60;99.90
24408;DHT22;12542;50.924;4.516;2023-05-07T02:38:22;16.50;99.90
24408;DHT22;12542;50.924;4.516;2023-05-07T02:40:48;16.50;99.90
24408;DHT22;12542;50.924;4.516;2023-05-07T02:43:14;16.40;99.90
24408;DHT22;12542;50.924;4.516;2023-05-07T02:45:39;16.40;99.90
24408;DHT22;12542;50.924;4.516;2023-05-07T02:48:05;16.30;99.90
24408;DHT22;12542;50.924;4.516;2023-05-07T02:50:31;16.30;99.90
24408;DHT22;12542;50.924;4.516;2023-05-07T02:52:58;16.40;99.90
24408;DHT22;12542;50.924;4.516;2023-05-07T02:55:24;16.40;99.90
24408;DHT22;12542;50.924;4.516;2023-05-07T02:57:50;16.40;99.90
24408;DHT22;12542;50.924;4.516;2023-05-07T03:00:18;16.30;99.90
24408;DHT22;12542;50.924;4.516;2023-05-07T03:02:44;16.20;99.90
24408;DHT22;12542;50.924;4.516;2023-05-07T03:05:13;16.20;99.90
24408;DHT22;12542;50.924;4.516;2023-05-07T03:07:40;16.20;99.90
24408;DHT22;12542;50.924;4.516;2023-05-07T03:10:09;16.10;99.90
24408;DHT22;12542;50.924;4.516;2023-05-07T03:12:35;16.00;99.90
24408;DHT22;12542;50.924;4.516;2023-05-07T03:15:01;16.00;99.90
24408;DHT22;12542;50.924;4.516;2023-05-07T03:17:26;16.10;99.90
24408;DHT22;12542;50.924;4.516;2023-05-07T03:19:52;16.20;99.90
24408;DHT22;12542;50.924;4.516;2023-05-07T03:22:18;16.10;99.90
24408;DHT22;12542;50.924;4.516;2023-05-07T03:24:43;16.10;99.90
24408;DHT22;12542;50.924;4.516;2023-05-07T03:27:09;16.10;99.90
24408;DHT22;12542;50.924;4.516;2023-05-07T03:29:36;16.30;99.90
24408;DHT22;12542;50.924;4.516;2023-05-07T03:32:01;16.20;99.90
24408;DHT22;12542;50.924;4.516;2023-05-07T03:34:27;16.00;99.90
24408;DHT22;12542;50.924;4.516;2023-05-07T03:36:53;16.00;99.90
24408;DHT22;12542;50.924;4.516;2023-05-07T03:39:18;16.00;99.90
24408;DHT22;12542;50.924;4.516;2023-05-07T03:41:44;16.10;99.90
24408;DHT22;12542;50.924;4.516;2023-05-07T03:44:10;16.10;99.90
24408;DHT22;12542;50.924;4.516;2023-05-07T03:46:40;16.10;99.90
24408;DHT22;12542;50.924;4.516;2023-05-07T03:49:06;16.10;99.90
24408;DHT22;12542;50.924;4.516;2023-05-07T03:51:31;16.10;99.90
24408;DHT22;12542;50.924;4.516;2023-05-07T03:53:57;16.10;99.90
24408;DHT22;12542;50.924;4.516;2023-05-07T03:56:23;16.10;99.90
24408;DHT22;12542;50.924;4.516;2023-05-07T03:58:52;16.00;99.90
24408;DHT22;12542;50.924;4.516;2023-05-07T04:01:18;15.90;99.90
24408;DHT22;12542;50.924;4.516;2023-05-07T04:03:43;15.90;99.90
24408;DHT22;12542;50.924;4.516;2023-05-07T04:06:09;15.90;99.90
24408;DHT22;12542;50.924;4.516;2023-05-07T04:08:35;15.80;99.90
24408;DHT22;12542;50.924;4.516;2023-05-07T04:11:00;16.10;99.90
24408;DHT22;12542;50.924;4.516;2023-05-07T04:13:26;16.10;99.90
24408;DHT22;12542;50.924;4.516;2023-05-07T04:15:53;16.00;99.90
24408;DHT22;12542;50.924;4.516;2023-05-07T04:18:19;15.90;99.90
24408;DHT22;12542;50.924;4.516;2023-05-07T04:20:45;15.90;99.90
24408;DHT22;12542;50.924;4.516;2023-05-07T04:23:11;15.90;99.90
24408;DHT22;12542;50.924;4.516;2023-05-07T04:25:36;16.10;99.90
24408;DHT22;12542;50.924;4.516;2023-05-07T04:28:02;16.20;99.90
24408;DHT22;12542;50.924;4.516;2023-05-07T04:30:28;16.10;99.90
24408;DHT22;12542;50.924;4.516;2023-05-07T04:32:53;16.10;99.90
24408;DHT22;12542;50.924;4.516;2023-05-07T04:35:19;16.30;99.90
24408;DHT22;12542;50.924;4.516;2023-05-07T04:37:45;16.40;99.90
24408;DHT22;12542;50.924;4.516;2023-05-07T04:40:11;16.30;99.90
24408;DHT22;12542;50.924;4.516;2023-05-07T04:42:37;16.00;99.90
24408;DHT22;12542;50.924;4.516;2023-05-07T04:45:03;16.10;99.90
24408;DHT22;12542;50.924;4.516;2023-05-07T04:47:30;16.10;99.90
24408;DHT22;12542;50.924;4.516;2023-05-07T04:49:57;16.10;99.90
24408;DHT22;12542;50.924;4.516;2023-05-07T04:52:22;16.30;99.90
24408;DHT22;12542;50.924;4.516;2023-05-07T04:54:48;16.40;99.90
24408;DHT22;12542;50.924;4.516;2023-05-07T04:57:14;16.40;99.90
24408;DHT22;12542;50.924;4.516;2023-05-07T04:59:39;16.20;99.90
24408;DHT22;12542;50.924;4.516;2023-05-07T05:02:05;16.30;99.90
24408;DHT22;12542;50.924;4.516;2023-05-07T05:04:31;16.50;99.90
24408;DHT22;12542;50.924;4.516;2023-05-07T05:06:59;16.50;99.90
24408;DHT22;12542;50.924;4.516;2023-05-07T05:09:29;16.60;99.90
24408;DHT22;12542;50.924;4.516;2023-05-07T05:11:56;16.70;99.90
24408;DHT22;12542;50.924;4.516;2023-05-07T05:14:22;16.90;99.90
24408;DHT22;12542;50.924;4.516;2023-05-07T05:16:48;17.20;99.90
24408;DHT22;12542;50.924;4.516;2023-05-07T05:19:13;17.40;99.90
24408;DHT22;12542;50.924;4.516;2023-05-07T05:21:39;17.50;99.90
24408;DHT22;12542;50.924;4.516;2023-05-07T05:24:05;17.50;99.90
24408;DHT22;12542;50.924;4.516;2023-05-07T05:26:31;17.60;99.90
24408;DHT22;12542;50.924;4.516;2023-05-07T05:28:57;17.60;99.90
24408;DHT22;12542;50.924;4.516;2023-05-07T05:31:22;17.40;99.90
24408;DHT22;12542;50.924;4.516;2023-05-07T05:33:48;17.50;99.90
24408;DHT22;12542;50.924;4.516;2023-05-07T05:36:14;17.40;99.90
24408;DHT22;12542;50.924;4.516;2023-05-07T05:38:40;17.50;99.90
24408;DHT22;12542;50.924;4.516;2023-05-07T05:41:05;17.60;99.90
24408;DHT22;12542;50.924;4.516;2023-05-07T05:43:31;17.70;99.90
24408;DHT22;12542;50.924;4.516;2023-05-07T05:45:57;17.90;99.90
24408;DHT22;12542;50.924;4.516;2023-05-07T05:48:23;17.70;99.90
24408;DHT22;12542;50.924;4.516;2023-05-07T05:50:49;17.60;99.90
24408;DHT22;12542;50.924;4.516;2023-05-07T05:53:15;17.40;99.90
24408;DHT22;12542;50.924;4.516;2023-05-07T05:55:41;17.40;99.90
24408;DHT22;12542;50.924;4.516;2023-05-07T05:58:07;17.20;99.90
24408;DHT22;12542;50.924;4.516;2023-05-07T06:00:33;17.10;99.90
24408;DHT22;12542;50.924;4.516;2023-05-07T06:02:59;17.20;99.90
24408;DHT22;12542;50.924;4.516;2023-05-07T06:05:24;17.30;99.90
24408;DHT22;12542;50.924;4.516;2023-05-07T06:07:50;17.30;99.90
24408;DHT22;12542;50.924;4.516;2023-05-07T06:10:16;17.40;99.90
24408;DHT22;12542;50.924;4.516;2023-05-07T06:12:44;17.60;99.90
24408;DHT22;12542;50.924;4.516;2023-05-07T06:15:10;17.40;99.90
24408;DHT22;12542;50.924;4.516;2023-05-07T06:17:35;17.20;99.90
24408;DHT22;12542;50.924;4.516;2023-05-07T06:20:01;17.00;99.90
24408;DHT22;12542;50.924;4.516;2023-05-07T06:22:27;16.60;99.90
24408;DHT22;12542;50.924;4.516;2023-05-07T06:24:53;16.80;99.90
24408;DHT22;12542;50.924;4.516;2023-05-07T06:27:19;16.80;99.90
24408;DHT22;12542;50.924;4.516;2023-05-07T06:29:44;16.80;99.90
24408;DHT22;12542;50.924;4.516;2023-05-07T06:32:12;16.70;99.90
24408;DHT22;12542;50.924;4.516;2023-05-07T06:34:39;16.80;99.90
24408;DHT22;12542;50.924;4.516;2023-05-07T06:37:05;17.00;99.90
24408;DHT22;12542;50.924;4.516;2023-05-07T06:39:31;17.20;99.90
24408;DHT22;12542;50.924;4.516;2023-05-07T06:41:57;17.30;99.90
24408;DHT22;12542;50.924;4.516;2023-05-07T06:44:23;17.40;99.90
24408;DHT22;12542;50.924;4.516;2023-05-07T06:46:49;17.60;99.90
24408;DHT22;12542;50.924;4.516;2023-05-07T06:49:15;17.70;99.90
24408;DHT22;12542;50.924;4.516;2023-05-07T06:51:41;17.90;99.90
24408;DHT22;12542;50.924;4.516;2023-05-07T06:54:06;18.00;99.90
24408;DHT22;12542;50.924;4.516;2023-05-07T06:56:34;18.10;99.90
24408;DHT22;12542;50.924;4.516;2023-05-07T06:59:01;18.10;99.90
24408;DHT22;12542;50.924;4.516;2023-05-07T07:01:27;18.30;99.90
24408;DHT22;12542;50.924;4.516;2023-05-07T07:03:53;18.40;99.90
24408;DHT22;12542;50.924;4.516;2023-05-07T07:06:18;18.40;99.90
24408;DHT22;12542;50.924;4.516;2023-05-07T07:08:44;18.40;99.90
24408;DHT22;12542;50.924;4.516;2023-05-07T07:11:11;18.40;99.90
24408;DHT22;12542;50.924;4.516;2023-05-07T07:13:37;18.50;99.90
24408;DHT22;12542;50.924;4.516;2023-05-07T07:16:03;18.50;99.90
24408;DHT22;12542;50.924;4.516;2023-05-07T07:18:29;18.60;99.90
24408;DHT22;12542;50.924;4.516;2023-05-07T07:20:54;18.60;99.90
24408;DHT22;12542;50.924;4.516;2023-05-07T07:23:20;18.60;99.90
24408;DHT22;12542;50.924;4.516;2023-05-07T07:25:46;18.60;99.90
24408;DHT22;12542;50.924;4.516;2023-05-07T07:28:11;18.50;99.90
24408;DHT22;12542;50.924;4.516;2023-05-07T07:30:37;18.50;99.90
24408;DHT22;12542;50.924;4.516;2023-05-07T07:33:04;18.50;99.90
24408;DHT22;12542;50.924;4.516;2023-05-07T07:35:33;18.50;99.90
24408;DHT22;12542;50.924;4.516;2023-05-07T07:37:59;18.60;99.90
24408;DHT22;12542;50.924;4.516;2023-05-07T07:40:25;18.50;99.90
24408;DHT22;12542;50.924;4.516;2023-05-07T07:42:51;18.50;99.90
24408;DHT22;12542;50.924;4.516;2023-05-07T07:45:19;18.40;99.90
24408;DHT22;12542;50.924;4.516;2023-05-07T07:47:45;18.20;99.90
24408;DHT22;12542;50.924;4.516;2023-05-07T07:50:11;18.20;99.90
24408;DHT22;12542;50.924;4.516;2023-05-07T07:52:37;18.30;99.90
24408;DHT22;12542;50.924;4.516;2023-05-07T07:55:03;18.40;99.90
24408;DHT22;12542;50.924;4.516;2023-05-07T07:57:30;18.40;99.90
24408;DHT22;12542;50.924;4.516;2023-05-07T07:59:55;18.50;99.90
24408;DHT22;12542;50.924;4.516;2023-05-07T08:02:21;18.50;99.90
24408;DHT22;12542;50.924;4.516;2023-05-07T08:04:47;18.50;99.90
24408;DHT22;12542;50.924;4.516;2023-05-07T08:07:13;18.50;99.90
24408;DHT22;12542;50.924;4.516;2023-05-07T08:09:39;18.50;99.90
24408;DHT22;12542;50.924;4.516;2023-05-07T08:12:06;18.40;99.90
24408;DHT22;12542;50.924;4.516;2023-05-07T08:14:33;18.40;99.90
24408;DHT22;12542;50.924;4.516;2023-05-07T08:16:59;18.40;99.90
24408;DHT22;12542;50.924;4.516;2023-05-07T08:19:24;18.40;99.90
24408;DHT22;12542;50.924;4.516;2023-05-07T08:21:52;18.30;99.90
24408;DHT22;12542;50.924;4.516;2023-05-07T08:24:18;18.40;99.90
24408;DHT22;12542;50.924;4.516;2023-05-07T08:26:44;18.50;99.90
24408;DHT22;12542;50.924;4.516;2023-05-07T08:29:15;18.60;99.90
24408;DHT22;12542;50.924;4.516;2023-05-07T08:31:43;18.70;99.90
24408;DHT22;12542;50.924;4.516;2023-05-07T08:34:09;18.70;99.90
24408;DHT22;12542;50.924;4.516;2023-05-07T08:36:35;18.70;99.90
24408;DHT22;12542;50.924;4.516;2023-05-07T08:39:00;18.80;99.90
24408;DHT22;12542;50.924;4.516;2023-05-07T08:41:26;18.90;99.90
24408;DHT22;12542;50.924;4.516;2023-05-07T08:43:52;19.00;99.90
24408;DHT22;12542;50.924;4.516;2023-05-07T08:46:22;18.90;99.90
24408;DHT22;12542;50.924;4.516;2023-05-07T08:48:49;18.90;99.90
24408;DHT22;12542;50.924;4.516;2023-05-07T08:51:18;18.90;99.90
24408;DHT22;12542;50.924;4.516;2023-05-07T08:53:44;18.90;99.90
24408;DHT22;12542;50.924;4.516;2023-05-07T08:56:10;18.80;99.90
24408;DHT22;12542;50.924;4.516;2023-05-07T08:58:36;18.90;99.90
24408;DHT22;12542;50.924;4.516;2023-05-07T09:01:09;18.90;99.90
24408;DHT22;12542;50.924;4.516;2023-05-07T09:03:36;18.80;99.90
24408;DHT22;12542;50.924;4.516;2023-05-07T09:06:03;18.60;99.90
24408;DHT22;12542;50.924;4.516;2023-05-07T09:08:29;18.80;99.90
24408;DHT22;12542;50.924;4.516;2023-05-07T09:10:55;18.80;99.90
24408;DHT22;12542;50.924;4.516;2023-05-07T09:13:21;18.90;99.90
24408;DHT22;12542;50.924;4.516;2023-05-07T09:15:46;19.00;99.90
24408;DHT22;12542;50.924;4.516;2023-05-07T09:18:12;19.00;99.90
24408;DHT22;12542;50.924;4.516;2023-05-07T09:20:39;19.00;99.90
24408;DHT22;12542;50.924;4.516;2023-05-07T09:23:08;18.90;99.90
24408;DHT22;12542;50.924;4.516;2023-05-07T09:25:35;18.90;99.90
24408;DHT22;12542;50.924;4.516;2023-05-07T09:28:02;18.90;99.90
24408;DHT22;12542;50.924;4.516;2023-05-07T09:30:32;19.00;99.90
24408;DHT22;12542;50.924;4.516;2023-05-07T09:32:58;19.20;99.90
24408;DHT22;12542;50.924;4.516;2023-05-07T09:35:25;19.20;99.90
24408;DHT22;12542;50.924;4.516;2023-05-07T09:37:53;19.20;99.90
24408;DHT22;12542;50.924;4.516;2023-05-07T09:40:25;19.20;99.90
24408;DHT22;12542;50.924;4.516;2023-05-07T09:42:51;19.20;99.90
24408;DHT22;12542;50.924;4.516;2023-05-07T09:45:24;19.40;99.90
24408;DHT22;12542;50.924;4.516;2023-05-07T09:47:54;19.30;99.90
24408;DHT22;12542;50.924;4.516;2023-05-07T09:50:26;19.20;99.90
24408;DHT22;12542;50.924;4.516;2023-05-07T09:52:54;19.40;99.90
24408;DHT22;12542;50.924;4.516;2023-05-07T09:55:21;19.40;99.90
24408;DHT22;12542;50.924;4.516;2023-05-07T09:57:51;19.40;99.90
24408;DHT22;12542;50.924;4.516;2023-05-07T10:00:21;19.40;99.90
24408;DHT22;12542;50.924;4.516;2023-05-07T10:02:48;19.40;99.90
24408;DHT22;12542;50.924;4.516;2023-05-07T10:05:19;19.30;99.90
24408;DHT22;12542;50.924;4.516;2023-05-07T10:07:48;19.40;99.90
24408;DHT22;12542;50.924;4.516;2023-05-07T10:10:15;19.50;99.90
24408;DHT22;12542;50.924;4.516;2023-05-07T10:12:41;19.50;99.90
24408;DHT22;12542;50.924;4.516;2023-05-07T10:15:13;19.70;99.90
24408;DHT22;12542;50.924;4.516;2023-05-07T10:17:40;19.60;99.90
24408;DHT22;12542;50.924;4.516;2023-05-07T10:20:08;19.50;99.90
24408;DHT22;12542;50.924;4.516;2023-05-07T10:22:48;19.60;99.90
24408;DHT22;12542;50.924;4.516;2023-05-07T10:25:21;19.60;99.90
24408;DHT22;12542;50.924;4.516;2023-05-07T10:27:49;19.70;99.90
24408;DHT22;12542;50.924;4.516;2023-05-07T10:33:03;19.80;99.90
24408;DHT22;12542;50.924;4.516;2023-05-07T10:35:36;19.60;99.90
24408;DHT22;12542;50.924;4.516;2023-05-07T10:38:03;19.60;99.90
24408;DHT22;12542;50.924;4.516;2023-05-07T10:40:30;19.60;99.90
24408;DHT22;12542;50.924;4.516;2023-05-07T10:43:01;19.70;99.90
24408;DHT22;12542;50.924;4.516;2023-05-07T10:45:28;19.60;99.90
24408;DHT22;12542;50.924;4.516;2023-05-07T10:48:16;19.70;99.90
24408;DHT22;12542;50.924;4.516;2023-05-07T10:50:43;19.70;99.90
24408;DHT22;12542;50.924;4.516;2023-05-07T10:55:44;19.70;99.90
24408;DHT22;12542;50.924;4.516;2023-05-07T10:58:23;19.70;99.90
24408;DHT22;12542;50.924;4.516;2023-05-07T11:01:00;19.70;99.90
24408;DHT22;12542;50.924;4.516;2023-05-07T11:03:27;19.60;99.90
24408;DHT22;12542;50.924;4.516;2023-05-07T11:06:12;19.00;99.90
24408;DHT22;12542;50.924;4.516;2023-05-07T11:08:58;18.90;99.90
24408;DHT22;12542;50.924;4.516;2023-05-07T11:12:02;18.90;99.90
24408;DHT22;12542;50.924;4.516;2023-05-07T11:17:07;18.70;99.90
24408;DHT22;12542;50.924;4.516;2023-05-07T11:19:53;18.80;99.90
24408;DHT22;12542;50.924;4.516;2023-05-07T11:25:00;18.90;99.90
24408;DHT22;12542;50.924;4.516;2023-05-07T11:27:26;18.50;99.90
24408;DHT22;12542;50.924;4.516;2023-05-07T11:29:52;18.80;99.90
24408;DHT22;12542;50.924;4.516;2023-05-07T11:32:32;18.80;99.90
24408;DHT22;12542;50.924;4.516;2023-05-07T11:34:59;19.00;99.90
24408;DHT22;12542;50.924;4.516;2023-05-07T11:37:26;19.10;99.90
24408;DHT22;12542;50.924;4.516;2023-05-07T11:40:06;19.40;99.90
24408;DHT22;12542;50.924;4.516;2023-05-07T11:42:34;19.60;99.90
24408;DHT22;12542;50.924;4.516;2023-05-07T11:45:01;19.90;99.90
24408;DHT22;12542;50.924;4.516;2023-05-07T11:47:30;20.00;99.90
24408;DHT22;12542;50.924;4.516;2023-05-07T11:49:56;20.10;99.90
24408;DHT22;12542;50.924;4.516;2023-05-07T11:52:23;20.30;99.90
24408;DHT22;12542;50.924;4.516;2023-05-07T11:54:53;20.40;99.90
24408;DHT22;12542;50.924;4.516;2023-05-07T11:57:20;20.30;99.90
24408;DHT22;12542;50.924;4.516;2023-05-07T11:59:47;20.40;99.90
24408;DHT22;12542;50.924;4.516;2023-05-07T12:02:14;20.30;99.90
24408;DHT22;12542;50.924;4.516;2023-05-07T12:04:41;20.50;99.90
24408;DHT22;12542;50.924;4.516;2023-05-07T12:07:16;20.60;99.90
24408;DHT22;12542;50.924;4.516;2023-05-07T12:09:43;20.80;99.90
24408;DHT22;12542;50.924;4.516;2023-05-07T12:12:09;20.90;99.90
24408;DHT22;12542;50.924;4.516;2023-05-07T12:14:42;20.90;99.90
24408;DHT22;12542;50.924;4.516;2023-05-07T12:17:09;20.90;99.90
24408;DHT22;12542;50.924;4.516;2023-05-07T12:19:36;21.00;99.90
24408;DHT22;12542;50.924;4.516;2023-05-07T12:22:07;20.90;99.90
24408;DHT22;12542;50.924;4.516;2023-05-07T12:24:46;21.00;99.90
24408;DHT22;12542;50.924;4.516;2023-05-07T12:27:13;21.20;99.90
24408;DHT22;12542;50.924;4.516;2023-05-07T12:29:39;21.30;99.90
24408;DHT22;12542;50.924;4.516;2023-05-07T12:32:17;21.20;99.90
24408;DHT22;12542;50.924;4.516;2023-05-07T12:34:43;21.20;99.90
24408;DHT22;12542;50.924;4.516;2023-05-07T12:37:10;21.30;99.90
24408;DHT22;12542;50.924;4.516;2023-05-07T12:39:36;21.30;99.90
24408;DHT22;12542;50.924;4.516;2023-05-07T12:42:02;21.40;99.90
24408;DHT22;12542;50.924;4.516;2023-05-07T12:44:32;21.70;99.90
24408;DHT22;12542;50.924;4.516;2023-05-07T12:47:00;21.70;99.90
24408;DHT22;12542;50.924;4.516;2023-05-07T12:49:26;21.70;99.90
24408;DHT22;12542;50.924;4.516;2023-05-07T12:51:53;21.70;99.90
24408;DHT22;12542;50.924;4.516;2023-05-07T12:54:32;21.50;99.90
24408;DHT22;12542;50.924;4.516;2023-05-07T12:57:06;20.50;99.90
24408;DHT22;12542;50.924;4.516;2023-05-07T12:59:41;20.40;99.90
24408;DHT22;12542;50.924;4.516;2023-05-07T13:02:08;20.70;99.90
24408;DHT22;12542;50.924;4.516;2023-05-07T13:04:37;20.60;99.90
24408;DHT22;12542;50.924;4.516;2023-05-07T13:07:03;20.80;99.90
24408;DHT22;12542;50.924;4.516;2023-05-07T13:09:28;20.90;99.90
24408;DHT22;12542;50.924;4.516;2023-05-07T13:11:54;21.10;99.90
24408;DHT22;12542;50.924;4.516;2023-05-07T13:14:20;21.20;99.90
24408;DHT22;12542;50.924;4.516;2023-05-07T13:16:49;21.40;99.90
24408;DHT22;12542;50.924;4.516;2023-05-07T13:19:15;21.20;99.90
24408;DHT22;12542;50.924;4.516;2023-05-07T13:21:40;21.30;99.90
24408;DHT22;12542;50.924;4.516;2023-05-07T13:24:06;21.50;99.90
24408;DHT22;12542;50.924;4.516;2023-05-07T13:26:35;21.50;99.90
24408;DHT22;12542;50.924;4.516;2023-05-07T13:29:00;21.60;99.90
24408;DHT22;12542;50.924;4.516;2023-05-07T13:31:26;21.30;99.90
24408;DHT22;12542;50.924;4.516;2023-05-07T13:33:52;21.20;99.90
24408;DHT22;12542;50.924;4.516;2023-05-07T13:36:20;21.30;99.90
24408;DHT22;12542;50.924;4.516;2023-05-07T13:38:46;21.30;99.90
24408;DHT22;12542;50.924;4.516;2023-05-07T13:41:12;21.30;99.90
24408;DHT22;12542;50.924;4.516;2023-05-07T13:43:38;21.40;99.90
24408;DHT22;12542;50.924;4.516;2023-05-07T13:46:04;21.40;99.90
24408;DHT22;12542;50.924;4.516;2023-05-07T13:48:29;21.50;99.90
24408;DHT22;12542;50.924;4.516;2023-05-07T13:50:55;21.40;99.90
24408;DHT22;12542;50.924;4.516;2023-05-07T13:53:21;21.40;99.90
24408;DHT22;12542;50.924;4.516;2023-05-07T13:55:47;21.40;99.90
24408;DHT22;12542;50.924;4.516;2023-05-07T13:58:12;21.30;99.90
24408;DHT22;12542;50.924;4.516;2023-05-07T14:00:38;21.20;99.90
24408;DHT22;12542;50.924;4.516;2023-05-07T14:03:04;21.20;99.90
24408;DHT22;12542;50.924;4.516;2023-05-07T14:05:30;21.10;99.90
24408;DHT22;12542;50.924;4.516;2023-05-07T14:07:59;21.20;99.90
24408;DHT22;12542;50.924;4.516;2023-05-07T14:10:25;21.20;99.90
24408;DHT22;12542;50.924;4.516;2023-05-07T14:12:53;21.10;99.90
24408;DHT22;12542;50.924;4.516;2023-05-07T14:15:19;21.10;99.90
24408;DHT22;12542;50.924;4.516;2023-05-07T14:17:45;21.20;99.90
24408;DHT22;12542;50.924;4.516;2023-05-07T14:20:12;21.30;99.90
24408;DHT22;12542;50.924;4.516;2023-05-07T14:22:40;21.40;99.90
24408;DHT22;12542;50.924;4.516;2023-05-07T14:25:06;21.40;99.90
24408;DHT22;12542;50.924;4.516;2023-05-07T14:27:32;21.40;99.90
24408;DHT22;12542;50.924;4.516;2023-05-07T14:29:58;21.50;99.90
24408;DHT22;12542;50.924;4.516;2023-05-07T14:32:24;21.50;99.90
24408;DHT22;12542;50.924;4.516;2023-05-07T14:34:50;21.60;99.90
24408;DHT22;12542;50.924;4.516;2023-05-07T14:37:16;21.60;99.90
24408;DHT22;12542;50.924;4.516;2023-05-07T14:39:41;21.70;99.90
24408;DHT22;12542;50.924;4.516;2023-05-07T14:42:07;21.70;99.90
24408;DHT22;12542;50.924;4.516;2023-05-07T14:44:39;21.80;99.90
24408;DHT22;12542;50.924;4.516;2023-05-07T14:47:07;21.70;99.90
24408;DHT22;12542;50.924;4.516;2023-05-07T14:49:33;21.60;99.90
24408;DHT22;12542;50.924;4.516;2023-05-07T14:51:59;21.80;99.90
24408;DHT22;12542;50.924;4.516;2023-05-07T14:54:25;21.90;99.90
24408;DHT22;12542;50.924;4.516;2023-05-07T14:56:51;21.90;99.90
24408;DHT22;12542;50.924;4.516;2023-05-07T14:59:19;21.80;99.90
24408;DHT22;12542;50.924;4.516;2023-05-07T15:01:47;21.80;99.90
24408;DHT22;12542;50.924;4.516;2023-05-07T15:04:12;21.90;99.90
24408;DHT22;12542;50.924;4.516;2023-05-07T15:06:38;21.80;99.90
24408;DHT22;12542;50.924;4.516;2023-05-07T15:09:04;21.70;99.90
24408;DHT22;12542;50.924;4.516;2023-05-07T15:11:30;21.80;99.90
24408;DHT22;12542;50.924;4.516;2023-05-07T15:13:55;21.70;99.90
24408;DHT22;12542;50.924;4.516;2023-05-07T15:16:21;22.10;99.90
24408;DHT22;12542;50.924;4.516;2023-05-07T15:18:48;21.90;99.90
24408;DHT22;12542;50.924;4.516;2023-05-07T15:21:13;21.90;99.90
24408;DHT22;12542;50.924;4.516;2023-05-07T15:23:39;22.00;99.90
24408;DHT22;12542;50.924;4.516;2023-05-07T15:26:08;22.00;99.90
24408;DHT22;12542;50.924;4.516;2023-05-07T15:28:34;22.00;99.90
24408;DHT22;12542;50.924;4.516;2023-05-07T15:31:02;22.00;99.90
24408;DHT22;12542;50.924;4.516;2023-05-07T15:33:28;21.80;99.90
24408;DHT22;12542;50.924;4.516;2023-05-07T15:35:53;21.90;99.90
24408;DHT22;12542;50.924;4.516;2023-05-07T15:38:19;21.80;99.90
24408;DHT22;12542;50.924;4.516;2023-05-07T15:40:45;21.60;99.90